Airfield :
LOGIN :

Register | Disclaimer

   EN    FR    IT 

 










Legend :    VFR   Marginal VFR   IFR   Intensive IFR   Very Intensive IFR
Visi :
Ceiling :
>= 8 km
>= 3000ft
5 to 8 km
1000 to 3000 ft
1500m to 5 km
500 to 1000 ft
800 to 1500m
200 to 500 ft
< 800m
< 200 ft
Symbols :   Thunderstorms  Fog  Heavy snow  Heavy precipitations  Wind > 20 kt
SIGMETs :     Misc.  Thunderstorms  Icing  Turbulence  Mountain Waves  Volcanic Ashes






- Airport Elevation : 622 ft
- IATA code : BRS


EGGD - Bristol Int.

CURRENT METAR :
  • 090920Z 31014KT 9999 FEW035 08/03 Q1011

EXPIRED METARs :
  • 090850Z 31019KT 9999 FEW030 07/03 Q1010
  • 090820Z 30014KT 9999 FEW030 07/03 Q1009
  • 090750Z AUTO 31016KT 9999 SCT032 BKN048 07/03 Q1008
  • 090720Z 30015KT 9999 FEW033 07/03 Q1006
  • 090650Z 31018KT 9999 FEW032 07/03 Q1005

TAF TAF EGGD
Valid from the 09 at 06:00 until the 10 at 06:00 UTC


090457Z 0906/1006 30020G30KT 9999 FEW030
BECMG 0909/0912 32014KT
BECMG 0915/0918 26005KT
BECMG 1000/1003 17012KT
PROB30
TEMPO 1003/1006 19016G26KT
ATIS : +44 1275 473 666



MET'MAP, your aeronautical weather chart ! - Copyright ORBIFLY December 2007 - Disclaimer

ORBIFLY MET'MAP TEAM :

Programming & Development : Alexandra Zaïnal
Concept & original design : Baudouin d'Aumeries
Assistance for programming : Marc-Olivier Méhu
Technical & hardware support : Manuel Goepfert

Contact : metmap@orbifly.com




SOURCES & CREDITS :

   NOAA